sensor_id;sensor_type;location;lat;lon;timestamp;P1;durP1;ratioP1;P2;durP2;ratioP2
54557;SDS011;40452;50.080;20.040;2022-12-24T00:00:29;13.45;;;8.30;;
54557;SDS011;40452;50.080;20.040;2022-12-24T00:02:54;13.18;;;8.27;;
54557;SDS011;40452;50.080;20.040;2022-12-24T00:05:20;13.32;;;8.43;;
54557;SDS011;40452;50.080;20.040;2022-12-24T00:07:45;13.75;;;8.48;;
54557;SDS011;40452;50.080;20.040;2022-12-24T00:10:11;15.35;;;8.35;;
54557;SDS011;40452;50.080;20.040;2022-12-24T00:12:36;16.10;;;9.02;;
54557;SDS011;40452;50.080;20.040;2022-12-24T00:15:03;14.75;;;8.85;;
54557;SDS011;40452;50.080;20.040;2022-12-24T00:17:29;13.70;;;8.40;;
54557;SDS011;40452;50.080;20.040;2022-12-24T00:19:55;14.43;;;8.48;;
54557;SDS011;40452;50.080;20.040;2022-12-24T00:22:21;15.13;;;9.02;;
54557;SDS011;40452;50.080;20.040;2022-12-24T00:24:46;13.45;;;8.20;;
54557;SDS011;40452;50.080;20.040;2022-12-24T00:27:12;15.43;;;9.02;;
54557;SDS011;40452;50.080;20.040;2022-12-24T00:29:37;14.52;;;8.13;;
54557;SDS011;40452;50.080;20.040;2022-12-24T00:32:03;13.25;;;8.60;;
54557;SDS011;40452;50.080;20.040;2022-12-24T00:34:32;12.30;;;8.45;;
54557;SDS011;40452;50.080;20.040;2022-12-24T00:36:58;15.65;;;8.55;;
54557;SDS011;40452;50.080;20.040;2022-12-24T00:39:23;14.18;;;8.75;;
54557;SDS011;40452;50.080;20.040;2022-12-24T00:41:49;14.77;;;8.52;;
54557;SDS011;40452;50.080;20.040;2022-12-24T00:44:14;15.05;;;8.75;;
54557;SDS011;40452;50.080;20.040;2022-12-24T00:46:40;14.18;;;8.82;;
54557;SDS011;40452;50.080;20.040;2022-12-24T00:49:06;12.40;;;8.32;;
54557;SDS011;40452;50.080;20.040;2022-12-24T00:51:33;13.45;;;8.55;;
54557;SDS011;40452;50.080;20.040;2022-12-24T00:53:59;15.10;;;8.70;;
54557;SDS011;40452;50.080;20.040;2022-12-24T00:56:25;14.02;;;8.45;;
54557;SDS011;40452;50.080;20.040;2022-12-24T00:58:51;13.60;;;8.70;;
54557;SDS011;40452;50.080;20.040;2022-12-24T01:01:17;15.77;;;9.07;;
54557;SDS011;40452;50.080;20.040;2022-12-24T01:03:42;14.25;;;8.73;;
54557;SDS011;40452;50.080;20.040;2022-12-24T01:06:12;16.50;;;9.00;;
54557;SDS011;40452;50.080;20.040;2022-12-24T01:11:05;15.32;;;8.65;;
54557;SDS011;40452;50.080;20.040;2022-12-24T01:13:31;15.20;;;8.68;;
54557;SDS011;40452;50.080;20.040;2022-12-24T01:15:57;13.18;;;8.82;;
54557;SDS011;40452;50.080;20.040;2022-12-24T01:18:23;16.38;;;9.02;;
54557;SDS011;40452;50.080;20.040;2022-12-24T01:20:56;14.90;;;8.90;;
54557;SDS011;40452;50.080;20.040;2022-12-24T01:23:22;15.57;;;9.40;;
54557;SDS011;40452;50.080;20.040;2022-12-24T01:25:48;14.23;;;9.07;;
54557;SDS011;40452;50.080;20.040;2022-12-24T01:28:14;16.65;;;8.73;;
54557;SDS011;40452;50.080;20.040;2022-12-24T01:30:39;14.13;;;8.60;;
54557;SDS011;40452;50.080;20.040;2022-12-24T01:33:05;15.00;;;9.20;;
54557;SDS011;40452;50.080;20.040;2022-12-24T01:35:31;14.82;;;8.63;;
54557;SDS011;40452;50.080;20.040;2022-12-24T01:37:56;15.20;;;9.23;;
54557;SDS011;40452;50.080;20.040;2022-12-24T01:40:24;15.35;;;9.20;;
54557;SDS011;40452;50.080;20.040;2022-12-24T01:43:16;14.85;;;8.32;;
54557;SDS011;40452;50.080;20.040;2022-12-24T01:48:35;15.18;;;8.90;;
54557;SDS011;40452;50.080;20.040;2022-12-24T01:53:38;15.63;;;8.93;;
54557;SDS011;40452;50.080;20.040;2022-12-24T01:56:07;15.50;;;9.55;;
54557;SDS011;40452;50.080;20.040;2022-12-24T01:58:35;15.55;;;9.70;;
54557;SDS011;40452;50.080;20.040;2022-12-24T02:01:03;13.45;;;8.55;;
54557;SDS011;40452;50.080;20.040;2022-12-24T02:03:28;15.15;;;8.98;;
54557;SDS011;40452;50.080;20.040;2022-12-24T02:05:54;13.82;;;9.10;;
54557;SDS011;40452;50.080;20.040;2022-12-24T02:08:22;15.10;;;9.13;;
54557;SDS011;40452;50.080;20.040;2022-12-24T02:10:47;14.05;;;8.88;;
54557;SDS011;40452;50.080;20.040;2022-12-24T02:13:14;14.23;;;8.93;;
54557;SDS011;40452;50.080;20.040;2022-12-24T02:18:25;14.10;;;8.73;;
54557;SDS011;40452;50.080;20.040;2022-12-24T06:21:05;11.73;;;6.95;;
54557;SDS011;40452;50.080;20.040;2022-12-24T06:23:32;11.20;;;6.68;;
54557;SDS011;40452;50.080;20.040;2022-12-24T06:26:00;9.85;;;6.40;;
54557;SDS011;40452;50.080;20.040;2022-12-24T06:28:26;9.88;;;6.25;;
54557;SDS011;40452;50.080;20.040;2022-12-24T06:30:53;10.38;;;6.13;;
54557;SDS011;40452;50.080;20.040;2022-12-24T06:33:18;11.15;;;6.38;;
54557;SDS011;40452;50.080;20.040;2022-12-24T06:35:44;10.35;;;6.80;;
54557;SDS011;40452;50.080;20.040;2022-12-24T06:38:10;10.23;;;5.75;;
54557;SDS011;40452;50.080;20.040;2022-12-24T06:40:39;10.23;;;5.65;;
54557;SDS011;40452;50.080;20.040;2022-12-24T06:43:06;9.57;;;5.78;;
54557;SDS011;40452;50.080;20.040;2022-12-24T06:45:32;8.93;;;5.55;;
54557;SDS011;40452;50.080;20.040;2022-12-24T06:47:58;9.77;;;5.40;;
54557;SDS011;40452;50.080;20.040;2022-12-24T06:50:24;10.15;;;5.75;;
54557;SDS011;40452;50.080;20.040;2022-12-24T06:52:49;7.68;;;5.28;;
54557;SDS011;40452;50.080;20.040;2022-12-24T06:55:15;8.48;;;5.25;;
54557;SDS011;40452;50.080;20.040;2022-12-24T06:57:40;8.55;;;5.20;;
54557;SDS011;40452;50.080;20.040;2022-12-24T07:00:06;7.40;;;4.90;;
54557;SDS011;40452;50.080;20.040;2022-12-24T07:02:33;8.85;;;5.07;;
54557;SDS011;40452;50.080;20.040;2022-12-24T07:04:59;7.93;;;5.28;;
54557;SDS011;40452;50.080;20.040;2022-12-24T07:07:24;7.05;;;4.35;;
54557;SDS011;40452;50.080;20.040;2022-12-24T07:09:50;6.60;;;4.65;;
54557;SDS011;40452;50.080;20.040;2022-12-24T07:12:15;7.88;;;4.88;;
54557;SDS011;40452;50.080;20.040;2022-12-24T07:14:41;7.75;;;4.20;;
54557;SDS011;40452;50.080;20.040;2022-12-24T07:17:06;7.47;;;4.57;;
54557;SDS011;40452;50.080;20.040;2022-12-24T07:19:32;9.57;;;4.35;;
54557;SDS011;40452;50.080;20.040;2022-12-24T07:21:58;7.82;;;4.75;;
54557;SDS011;40452;50.080;20.040;2022-12-24T07:24:23;9.60;;;4.90;;
54557;SDS011;40452;50.080;20.040;2022-12-24T07:26:49;6.93;;;4.68;;
54557;SDS011;40452;50.080;20.040;2022-12-24T07:29:15;8.05;;;4.88;;
54557;SDS011;40452;50.080;20.040;2022-12-24T07:31:40;8.50;;;4.85;;
54557;SDS011;40452;50.080;20.040;2022-12-24T07:34:06;6.65;;;4.80;;
54557;SDS011;40452;50.080;20.040;2022-12-24T07:36:31;7.35;;;4.85;;
54557;SDS011;40452;50.080;20.040;2022-12-24T07:38:57;9.38;;;4.85;;
54557;SDS011;40452;50.080;20.040;2022-12-24T07:41:22;8.38;;;4.85;;
54557;SDS011;40452;50.080;20.040;2022-12-24T07:43:48;8.63;;;4.40;;
54557;SDS011;40452;50.080;20.040;2022-12-24T07:46:13;9.40;;;4.75;;
54557;SDS011;40452;50.080;20.040;2022-12-24T07:48:39;6.93;;;4.90;;
54557;SDS011;40452;50.080;20.040;2022-12-24T07:51:04;7.10;;;4.65;;
54557;SDS011;40452;50.080;20.040;2022-12-24T07:53:30;7.60;;;5.00;;
54557;SDS011;40452;50.080;20.040;2022-12-24T07:55:56;6.97;;;4.72;;
54557;SDS011;40452;50.080;20.040;2022-12-24T07:58:22;8.13;;;5.40;;
54557;SDS011;40452;50.080;20.040;2022-12-24T08:00:48;8.05;;;5.40;;
54557;SDS011;40452;50.080;20.040;2022-12-24T08:03:15;10.57;;;4.95;;
54557;SDS011;40452;50.080;20.040;2022-12-24T08:05:42;7.07;;;4.57;;
54557;SDS011;40452;50.080;20.040;2022-12-24T08:08:07;7.15;;;4.70;;
54557;SDS011;40452;50.080;20.040;2022-12-24T08:10:33;6.47;;;4.47;;
54557;SDS011;40452;50.080;20.040;2022-12-24T08:12:58;7.65;;;5.00;;
54557;SDS011;40452;50.080;20.040;2022-12-24T08:15:23;9.15;;;4.50;;
54557;SDS011;40452;50.080;20.040;2022-12-24T08:17:49;8.32;;;4.60;;
54557;SDS011;40452;50.080;20.040;2022-12-24T08:20:15;7.88;;;4.60;;
54557;SDS011;40452;50.080;20.040;2022-12-24T08:22:41;10.90;;;4.22;;
54557;SDS011;40452;50.080;20.040;2022-12-24T08:25:07;10.30;;;4.35;;
54557;SDS011;40452;50.080;20.040;2022-12-24T08:27:33;7.47;;;4.53;;
54557;SDS011;40452;50.080;20.040;2022-12-24T08:29:59;8.75;;;4.93;;
54557;SDS011;40452;50.080;20.040;2022-12-24T08:32:24;7.70;;;4.53;;
54557;SDS011;40452;50.080;20.040;2022-12-24T08:34:50;8.00;;;5.47;;
54557;SDS011;40452;50.080;20.040;2022-12-24T08:37:15;8.68;;;5.03;;
54557;SDS011;40452;50.080;20.040;2022-12-24T08:39:41;8.70;;;5.30;;
54557;SDS011;40452;50.080;20.040;2022-12-24T08:42:06;10.43;;;5.50;;
54557;SDS011;40452;50.080;20.040;2022-12-24T08:44:32;9.23;;;5.57;;
54557;SDS011;40452;50.080;20.040;2022-12-24T08:46:57;9.02;;;5.93;;
54557;SDS011;40452;50.080;20.040;2022-12-24T08:49:23;9.18;;;5.32;;
54557;SDS011;40452;50.080;20.040;2022-12-24T08:51:49;10.20;;;5.57;;
54557;SDS011;40452;50.080;20.040;2022-12-24T08:54:15;9.65;;;6.10;;
54557;SDS011;40452;50.080;20.040;2022-12-24T08:56:40;9.55;;;6.05;;
54557;SDS011;40452;50.080;20.040;2022-12-24T08:59:06;10.23;;;5.60;;
54557;SDS011;40452;50.080;20.040;2022-12-24T09:01:31;11.50;;;6.68;;
54557;SDS011;40452;50.080;20.040;2022-12-24T09:03:58;11.00;;;6.80;;
54557;SDS011;40452;50.080;20.040;2022-12-24T09:06:25;13.43;;;7.38;;
54557;SDS011;40452;50.080;20.040;2022-12-24T09:08:51;12.18;;;7.50;;
54557;SDS011;40452;50.080;20.040;2022-12-24T09:11:17;12.15;;;7.38;;
54557;SDS011;40452;50.080;20.040;2022-12-24T09:13:44;11.07;;;7.47;;
54557;SDS011;40452;50.080;20.040;2022-12-24T09:16:10;13.68;;;7.88;;
54557;SDS011;40452;50.080;20.040;2022-12-24T09:18:35;13.63;;;8.63;;
54557;SDS011;40452;50.080;20.040;2022-12-24T09:21:02;15.00;;;8.45;;
54557;SDS011;40452;50.080;20.040;2022-12-24T09:23:29;14.27;;;8.13;;
54557;SDS011;40452;50.080;20.040;2022-12-24T09:25:55;13.23;;;8.07;;
54557;SDS011;40452;50.080;20.040;2022-12-24T09:28:21;15.85;;;9.05;;
54557;SDS011;40452;50.080;20.040;2022-12-24T09:30:54;14.77;;;8.85;;
54557;SDS011;40452;50.080;20.040;2022-12-24T09:33:20;15.35;;;9.85;;
54557;SDS011;40452;50.080;20.040;2022-12-24T09:35:46;15.38;;;9.77;;
54557;SDS011;40452;50.080;20.040;2022-12-24T09:38:14;15.45;;;9.60;;
54557;SDS011;40452;50.080;20.040;2022-12-24T09:40:39;13.85;;;9.13;;
54557;SDS011;40452;50.080;20.040;2022-12-24T09:43:06;16.10;;;9.57;;
54557;SDS011;40452;50.080;20.040;2022-12-24T09:45:40;14.27;;;9.43;;
54557;SDS011;40452;50.080;20.040;2022-12-24T09:48:16;14.63;;;9.77;;
54557;SDS011;40452;50.080;20.040;2022-12-24T09:51:03;15.93;;;10.48;;
54557;SDS011;40452;50.080;20.040;2022-12-24T09:53:46;15.80;;;10.35;;
54557;SDS011;40452;50.080;20.040;2022-12-24T09:56:24;19.27;;;10.80;;
54557;SDS011;40452;50.080;20.040;2022-12-24T09:59:01;20.15;;;10.80;;
54557;SDS011;40452;50.080;20.040;2022-12-24T10:01:29;14.68;;;10.27;;
54557;SDS011;40452;50.080;20.040;2022-12-24T10:03:57;16.92;;;10.38;;
54557;SDS011;40452;50.080;20.040;2022-12-24T10:11:52;18.13;;;10.35;;
54557;SDS011;40452;50.080;20.040;2022-12-24T10:14:38;16.73;;;9.43;;
54557;SDS011;40452;50.080;20.040;2022-12-24T10:20:31;20.02;;;10.07;;
54557;SDS011;40452;50.080;20.040;2022-12-24T10:23:04;17.48;;;9.93;;
54557;SDS011;40452;50.080;20.040;2022-12-24T10:25:46;13.27;;;9.52;;
54557;SDS011;40452;50.080;20.040;2022-12-24T10:28:15;16.58;;;9.60;;
54557;SDS011;40452;50.080;20.040;2022-12-24T10:30:43;17.73;;;9.68;;
54557;SDS011;40452;50.080;20.040;2022-12-24T10:33:21;19.65;;;10.40;;
54557;SDS011;40452;50.080;20.040;2022-12-24T10:36:15;13.77;;;9.02;;
54557;SDS011;40452;50.080;20.040;2022-12-24T10:38:43;18.20;;;9.45;;
54557;SDS011;40452;50.080;20.040;2022-12-24T10:41:09;14.93;;;8.95;;
54557;SDS011;40452;50.080;20.040;2022-12-24T10:43:36;12.65;;;9.02;;
54557;SDS011;40452;50.080;20.040;2022-12-24T10:46:05;13.63;;;8.88;;
54557;SDS011;40452;50.080;20.040;2022-12-24T10:56:37;17.10;;;8.55;;
54557;SDS011;40452;50.080;20.040;2022-12-24T10:59:05;13.57;;;9.00;;
54557;SDS011;40452;50.080;20.040;2022-12-24T11:01:46;14.38;;;8.13;;
54557;SDS011;40452;50.080;20.040;2022-12-24T11:04:14;13.02;;;8.10;;
54557;SDS011;40452;50.080;20.040;2022-12-24T11:09:52;13.30;;;8.00;;
54557;SDS011;40452;50.080;20.040;2022-12-24T11:12:33;13.57;;;8.73;;
54557;SDS011;40452;50.080;20.040;2022-12-24T11:15:03;14.63;;;8.18;;
54557;SDS011;40452;50.080;20.040;2022-12-24T11:17:29;11.77;;;8.35;;
54557;SDS011;40452;50.080;20.040;2022-12-24T11:19:55;15.13;;;8.15;;
54557;SDS011;40452;50.080;20.040;2022-12-24T11:22:23;11.40;;;8.10;;
54557;SDS011;40452;50.080;20.040;2022-12-24T11:32:39;11.68;;;7.40;;
54557;SDS011;40452;50.080;20.040;2022-12-24T11:35:05;12.18;;;7.95;;
54557;SDS011;40452;50.080;20.040;2022-12-24T11:37:32;10.55;;;7.28;;
54557;SDS011;40452;50.080;20.040;2022-12-24T11:40:01;14.90;;;9.00;;
54557;SDS011;40452;50.080;20.040;2022-12-24T11:42:30;12.98;;;7.95;;
54557;SDS011;40452;50.080;20.040;2022-12-24T11:44:55;11.63;;;6.90;;
54557;SDS011;40452;50.080;20.040;2022-12-24T11:47:57;11.45;;;7.30;;
54557;SDS011;40452;50.080;20.040;2022-12-24T11:50:24;11.75;;;6.80;;
54557;SDS011;40452;50.080;20.040;2022-12-24T11:58:11;10.43;;;6.93;;
54557;SDS011;40452;50.080;20.040;2022-12-24T12:00:42;10.32;;;6.07;;
54557;SDS011;40452;50.080;20.040;2022-12-24T12:03:26;11.52;;;6.28;;
54557;SDS011;40452;50.080;20.040;2022-12-24T12:05:58;10.60;;;6.28;;
54557;SDS011;40452;50.080;20.040;2022-12-24T12:08:28;11.63;;;6.13;;
54557;SDS011;40452;50.080;20.040;2022-12-24T12:10:54;10.70;;;5.80;;
54557;SDS011;40452;50.080;20.040;2022-12-24T12:13:25;8.48;;;5.75;;
54557;SDS011;40452;50.080;20.040;2022-12-24T12:18:46;8.55;;;5.43;;
54557;SDS011;40452;50.080;20.040;2022-12-24T12:21:34;9.48;;;5.63;;
54557;SDS011;40452;50.080;20.040;2022-12-24T12:24:05;7.63;;;4.88;;
54557;SDS011;40452;50.080;20.040;2022-12-24T12:26:40;8.68;;;5.38;;
54557;SDS011;40452;50.080;20.040;2022-12-24T12:29:28;8.57;;;4.45;;
54557;SDS011;40452;50.080;20.040;2022-12-24T12:31:59;8.70;;;4.95;;
54557;SDS011;40452;50.080;20.040;2022-12-24T12:37:04;8.65;;;4.35;;
54557;SDS011;40452;50.080;20.040;2022-12-24T12:39:36;8.32;;;4.80;;
54557;SDS011;40452;50.080;20.040;2022-12-24T12:47:50;9.90;;;4.75;;
54557;SDS011;40452;50.080;20.040;2022-12-24T12:58:59;7.90;;;3.75;;
54557;SDS011;40452;50.080;20.040;2022-12-24T13:01:40;6.57;;;3.72;;
54557;SDS011;40452;50.080;20.040;2022-12-24T13:07:29;8.90;;;4.72;;
54557;SDS011;40452;50.080;20.040;2022-12-24T13:10:14;11.70;;;4.55;;
54557;SDS011;40452;50.080;20.040;2022-12-24T13:16:06;8.30;;;4.60;;
54557;SDS011;40452;50.080;20.040;2022-12-24T13:18:54;8.93;;;5.32;;
54557;SDS011;40452;50.080;20.040;2022-12-24T13:21:26;7.90;;;4.22;;
54557;SDS011;40452;50.080;20.040;2022-12-24T13:24:03;9.05;;;4.65;;
54557;SDS011;40452;50.080;20.040;2022-12-24T13:29:28;8.57;;;4.40;;
54557;SDS011;40452;50.080;20.040;2022-12-24T13:37:20;6.72;;;4.10;;
54557;SDS011;40452;50.080;20.040;2022-12-24T13:39:59;7.30;;;4.35;;
54557;SDS011;40452;50.080;20.040;2022-12-24T13:42:50;10.30;;;4.40;;
54557;SDS011;40452;50.080;20.040;2022-12-24T13:50:40;6.35;;;3.83;;
54557;SDS011;40452;50.080;20.040;2022-12-24T13:56:04;7.25;;;3.90;;
54557;SDS011;40452;50.080;20.040;2022-12-24T13:58:35;6.45;;;3.45;;
54557;SDS011;40452;50.080;20.040;2022-12-24T14:01:08;7.30;;;3.72;;
54557;SDS011;40452;50.080;20.040;2022-12-24T14:03:46;7.97;;;4.07;;
54557;SDS011;40452;50.080;20.040;2022-12-24T14:06:22;6.85;;;3.67;;
54557;SDS011;40452;50.080;20.040;2022-12-24T14:08:57;6.18;;;3.83;;
54557;SDS011;40452;50.080;20.040;2022-12-24T14:16:52;9.50;;;4.90;;
54557;SDS011;40452;50.080;20.040;2022-12-24T14:19:22;7.28;;;4.50;;
54557;SDS011;40452;50.080;20.040;2022-12-24T14:21:53;7.20;;;4.57;;
54557;SDS011;40452;50.080;20.040;2022-12-24T14:24:26;10.50;;;4.68;;
54557;SDS011;40452;50.080;20.040;2022-12-24T14:26:58;8.80;;;4.20;;
54557;SDS011;40452;50.080;20.040;2022-12-24T14:29:36;7.43;;;4.32;;
54557;SDS011;40452;50.080;20.040;2022-12-24T14:32:34;10.93;;;4.28;;
54557;SDS011;40452;50.080;20.040;2022-12-24T14:35:08;7.22;;;4.30;;
54557;SDS011;40452;50.080;20.040;2022-12-24T14:37:41;7.47;;;4.35;;
54557;SDS011;40452;50.080;20.040;2022-12-24T14:40:14;7.70;;;4.47;;
54557;SDS011;40452;50.080;20.040;2022-12-24T14:45:48;8.02;;;4.50;;
54557;SDS011;40452;50.080;20.040;2022-12-24T14:56:14;8.93;;;4.68;;
54557;SDS011;40452;50.080;20.040;2022-12-24T14:58:42;9.13;;;5.35;;
54557;SDS011;40452;50.080;20.040;2022-12-24T15:01:25;9.57;;;5.20;;
54557;SDS011;40452;50.080;20.040;2022-12-24T15:03:59;13.50;;;6.15;;
54557;SDS011;40452;50.080;20.040;2022-12-24T15:06:24;27.02;;;9.85;;
54557;SDS011;40452;50.080;20.040;2022-12-24T15:08:51;35.58;;;10.23;;
54557;SDS011;40452;50.080;20.040;2022-12-24T15:11:18;36.35;;;12.05;;
54557;SDS011;40452;50.080;20.040;2022-12-24T15:13:46;38.78;;;12.40;;
54557;SDS011;40452;50.080;20.040;2022-12-24T15:16:20;35.97;;;11.80;;
54557;SDS011;40452;50.080;20.040;2022-12-24T15:18:52;41.72;;;12.57;;
54557;SDS011;40452;50.080;20.040;2022-12-24T15:21:33;36.40;;;11.32;;
54557;SDS011;40452;50.080;20.040;2022-12-24T15:24:08;35.72;;;11.43;;
54557;SDS011;40452;50.080;20.040;2022-12-24T15:26:58;32.10;;;10.77;;
54557;SDS011;40452;50.080;20.040;2022-12-24T15:29:28;28.70;;;10.82;;
54557;SDS011;40452;50.080;20.040;2022-12-24T15:31:59;31.02;;;10.07;;
54557;SDS011;40452;50.080;20.040;2022-12-24T15:34:30;28.13;;;9.45;;
54557;SDS011;40452;50.080;20.040;2022-12-24T15:37:20;27.45;;;9.07;;
54557;SDS011;40452;50.080;20.040;2022-12-24T15:42:24;26.40;;;8.15;;
54557;SDS011;40452;50.080;20.040;2022-12-24T15:45:04;20.80;;;8.02;;
54557;SDS011;40452;50.080;20.040;2022-12-24T15:47:44;24.73;;;8.63;;
54557;SDS011;40452;50.080;20.040;2022-12-24T15:50:29;26.35;;;8.57;;
54557;SDS011;40452;50.080;20.040;2022-12-24T15:53:04;20.67;;;7.47;;
54557;SDS011;40452;50.080;20.040;2022-12-24T15:55:38;22.17;;;7.65;;
54557;SDS011;40452;50.080;20.040;2022-12-24T15:58:13;23.05;;;8.18;;
54557;SDS011;40452;50.080;20.040;2022-12-24T16:01:02;17.73;;;7.40;;
54557;SDS011;40452;50.080;20.040;2022-12-24T16:03:41;19.13;;;7.55;;
54557;SDS011;40452;50.080;20.040;2022-12-24T16:06:20;21.85;;;7.38;;
54557;SDS011;40452;50.080;20.040;2022-12-24T16:08:47;20.23;;;7.30;;
54557;SDS011;40452;50.080;20.040;2022-12-24T16:16:20;22.13;;;6.55;;
54557;SDS011;40452;50.080;20.040;2022-12-24T16:18:55;14.55;;;5.80;;
54557;SDS011;40452;50.080;20.040;2022-12-24T16:21:23;13.45;;;5.80;;
54557;SDS011;40452;50.080;20.040;2022-12-24T16:23:52;18.13;;;5.65;;
54557;SDS011;40452;50.080;20.040;2022-12-24T16:26:19;12.63;;;6.10;;
54557;SDS011;40452;50.080;20.040;2022-12-24T16:28:45;14.73;;;5.78;;
54557;SDS011;40452;50.080;20.040;2022-12-24T16:31:18;14.05;;;5.40;;
54557;SDS011;40452;50.080;20.040;2022-12-24T16:33:53;14.88;;;5.70;;
54557;SDS011;40452;50.080;20.040;2022-12-24T16:36:21;16.20;;;5.88;;
54557;SDS011;40452;50.080;20.040;2022-12-24T16:38:46;13.75;;;5.65;;
54557;SDS011;40452;50.080;20.040;2022-12-24T16:41:31;14.63;;;5.18;;
54557;SDS011;40452;50.080;20.040;2022-12-24T16:44:16;16.15;;;6.28;;
54557;SDS011;40452;50.080;20.040;2022-12-24T16:46:41;10.48;;;5.28;;
54557;SDS011;40452;50.080;20.040;2022-12-24T16:49:10;11.73;;;5.40;;
54557;SDS011;40452;50.080;20.040;2022-12-24T16:51:44;14.50;;;5.82;;
54557;SDS011;40452;50.080;20.040;2022-12-24T16:54:13;14.05;;;5.47;;
54557;SDS011;40452;50.080;20.040;2022-12-24T16:56:40;11.57;;;5.18;;
54557;SDS011;40452;50.080;20.040;2022-12-24T16:59:16;14.07;;;5.53;;
54557;SDS011;40452;50.080;20.040;2022-12-24T17:01:45;14.23;;;5.63;;
54557;SDS011;40452;50.080;20.040;2022-12-24T17:04:11;10.73;;;5.03;;
54557;SDS011;40452;50.080;20.040;2022-12-24T17:06:37;11.95;;;6.13;;
54557;SDS011;40452;50.080;20.040;2022-12-24T17:09:03;12.38;;;6.22;;
54557;SDS011;40452;50.080;20.040;2022-12-24T17:11:29;12.23;;;6.75;;
54557;SDS011;40452;50.080;20.040;2022-12-24T17:13:54;16.83;;;7.13;;
54557;SDS011;40452;50.080;20.040;2022-12-24T17:16:20;13.55;;;7.07;;
54557;SDS011;40452;50.080;20.040;2022-12-24T17:18:45;14.63;;;7.70;;
54557;SDS011;40452;50.080;20.040;2022-12-24T17:21:12;18.38;;;8.60;;
54557;SDS011;40452;50.080;20.040;2022-12-24T17:23:39;17.83;;;8.27;;
54557;SDS011;40452;50.080;20.040;2022-12-24T17:26:05;14.55;;;8.68;;
54557;SDS011;40452;50.080;20.040;2022-12-24T17:28:32;15.55;;;8.48;;
54557;SDS011;40452;50.080;20.040;2022-12-24T17:30:57;14.15;;;8.55;;
54557;SDS011;40452;50.080;20.040;2022-12-24T17:33:23;15.82;;;9.20;;
54557;SDS011;40452;50.080;20.040;2022-12-24T17:35:49;17.77;;;9.93;;
54557;SDS011;40452;50.080;20.040;2022-12-24T17:38:16;14.60;;;8.95;;
54557;SDS011;40452;50.080;20.040;2022-12-24T17:40:42;16.48;;;9.48;;
54557;SDS011;40452;50.080;20.040;2022-12-24T17:43:08;16.83;;;9.45;;
54557;SDS011;40452;50.080;20.040;2022-12-24T17:45:33;17.17;;;9.80;;
54557;SDS011;40452;50.080;20.040;2022-12-24T17:48:03;18.70;;;10.13;;
54557;SDS011;40452;50.080;20.040;2022-12-24T17:50:29;14.73;;;9.63;;
54557;SDS011;40452;50.080;20.040;2022-12-24T17:52:54;18.25;;;10.05;;
54557;SDS011;40452;50.080;20.040;2022-12-24T17:55:20;17.52;;;10.13;;
54557;SDS011;40452;50.080;20.040;2022-12-24T17:57:47;17.25;;;10.20;;
54557;SDS011;40452;50.080;20.040;2022-12-24T18:00:13;17.25;;;10.63;;
54557;SDS011;40452;50.080;20.040;2022-12-24T18:02:39;16.27;;;10.80;;
54557;SDS011;40452;50.080;20.040;2022-12-24T18:05:05;17.88;;;11.00;;
54557;SDS011;40452;50.080;20.040;2022-12-24T18:07:30;16.75;;;10.63;;
54557;SDS011;40452;50.080;20.040;2022-12-24T18:09:56;18.08;;;10.73;;
54557;SDS011;40452;50.080;20.040;2022-12-24T18:12:21;18.85;;;11.00;;
54557;SDS011;40452;50.080;20.040;2022-12-24T18:14:47;19.67;;;10.82;;
54557;SDS011;40452;50.080;20.040;2022-12-24T18:17:12;19.23;;;10.32;;
54557;SDS011;40452;50.080;20.040;2022-12-24T18:19:38;18.00;;;11.10;;
54557;SDS011;40452;50.080;20.040;2022-12-24T18:22:03;16.98;;;10.57;;
54557;SDS011;40452;50.080;20.040;2022-12-24T18:24:29;16.55;;;11.30;;
54557;SDS011;40452;50.080;20.040;2022-12-24T18:26:55;17.40;;;10.25;;
54557;SDS011;40452;50.080;20.040;2022-12-24T18:29:21;16.33;;;10.10;;
54557;SDS011;40452;50.080;20.040;2022-12-24T18:31:46;18.30;;;10.50;;
54557;SDS011;40452;50.080;20.040;2022-12-24T18:34:13;19.45;;;10.85;;
54557;SDS011;40452;50.080;20.040;2022-12-24T18:36:39;17.08;;;10.10;;
54557;SDS011;40452;50.080;20.040;2022-12-24T18:39:05;15.32;;;9.75;;
54557;SDS011;40452;50.080;20.040;2022-12-24T18:41:30;17.88;;;10.02;;
54557;SDS011;40452;50.080;20.040;2022-12-24T18:43:57;16.17;;;9.40;;
54557;SDS011;40452;50.080;20.040;2022-12-24T18:46:24;21.20;;;11.13;;
54557;SDS011;40452;50.080;20.040;2022-12-24T18:48:52;23.20;;;10.70;;
54557;SDS011;40452;50.080;20.040;2022-12-24T18:51:20;20.63;;;11.15;;
54557;SDS011;40452;50.080;20.040;2022-12-24T18:53:46;22.55;;;11.23;;
54557;SDS011;40452;50.080;20.040;2022-12-24T18:56:13;17.98;;;11.10;;
54557;SDS011;40452;50.080;20.040;2022-12-24T18:58:40;21.95;;;11.25;;
54557;SDS011;40452;50.080;20.040;2022-12-24T19:01:13;19.52;;;9.85;;
54557;SDS011;40452;50.080;20.040;2022-12-24T19:03:41;19.75;;;10.57;;
54557;SDS011;40452;50.080;20.040;2022-12-24T19:06:07;18.20;;;10.68;;
54557;SDS011;40452;50.080;20.040;2022-12-24T19:08:33;23.70;;;11.32;;
54557;SDS011;40452;50.080;20.040;2022-12-24T19:10:59;18.65;;;9.93;;
54557;SDS011;40452;50.080;20.040;2022-12-24T19:13:25;20.48;;;11.15;;
54557;SDS011;40452;50.080;20.040;2022-12-24T19:15:51;23.02;;;10.27;;
54557;SDS011;40452;50.080;20.040;2022-12-24T19:18:16;20.90;;;9.98;;
54557;SDS011;40452;50.080;20.040;2022-12-24T19:20:42;19.10;;;9.85;;
54557;SDS011;40452;50.080;20.040;2022-12-24T19:23:07;20.52;;;10.60;;
54557;SDS011;40452;50.080;20.040;2022-12-24T19:25:33;19.70;;;9.48;;
54557;SDS011;40452;50.080;20.040;2022-12-24T19:27:59;16.88;;;9.95;;
54557;SDS011;40452;50.080;20.040;2022-12-24T19:30:26;16.10;;;9.95;;
54557;SDS011;40452;50.080;20.040;2022-12-24T19:32:51;18.77;;;9.45;;
54557;SDS011;40452;50.080;20.040;2022-12-24T19:35:17;16.27;;;9.07;;
54557;SDS011;40452;50.080;20.040;2022-12-24T19:37:42;18.83;;;10.15;;
54557;SDS011;40452;50.080;20.040;2022-12-24T19:40:08;16.85;;;9.45;;
54557;SDS011;40452;50.080;20.040;2022-12-24T19:42:34;19.13;;;9.50;;
54557;SDS011;40452;50.080;20.040;2022-12-24T19:45:00;15.38;;;8.98;;
54557;SDS011;40452;50.080;20.040;2022-12-24T19:47:25;18.70;;;9.07;;
54557;SDS011;40452;50.080;20.040;2022-12-24T19:49:51;18.33;;;8.73;;
54557;SDS011;40452;50.080;20.040;2022-12-24T19:52:16;16.35;;;8.52;;
54557;SDS011;40452;50.080;20.040;2022-12-24T19:54:42;14.38;;;8.18;;
54557;SDS011;40452;50.080;20.040;2022-12-24T19:57:07;15.57;;;8.35;;
54557;SDS011;40452;50.080;20.040;2022-12-24T19:59:33;16.30;;;7.82;;
54557;SDS011;40452;50.080;20.040;2022-12-24T20:01:59;16.27;;;7.85;;
54557;SDS011;40452;50.080;20.040;2022-12-24T20:04:25;15.45;;;7.78;;
54557;SDS011;40452;50.080;20.040;2022-12-24T20:06:50;15.05;;;8.27;;
54557;SDS011;40452;50.080;20.040;2022-12-24T20:09:16;15.10;;;8.15;;
54557;SDS011;40452;50.080;20.040;2022-12-24T20:11:41;15.35;;;8.48;;
54557;SDS011;40452;50.080;20.040;2022-12-24T20:14:07;15.13;;;7.85;;
54557;SDS011;40452;50.080;20.040;2022-12-24T20:16:34;13.57;;;7.78;;
54557;SDS011;40452;50.080;20.040;2022-12-24T20:19:01;13.07;;;7.40;;
54557;SDS011;40452;50.080;20.040;2022-12-24T20:21:30;16.90;;;8.23;;
54557;SDS011;40452;50.080;20.040;2022-12-24T20:23:56;15.93;;;7.78;;